Terminal Aerodrome Forecast
Issued by NWS

Home | Current Version | Previous Version | Text Only | Print | Product List | Glossary On
Versions: 1 2 3 4 5 6 7 8 9 10 11 12 13 14
837
FTUS44 KBMX 290223 AAA
TAFTCL
TAF AMD
KTCL 290223Z 2902/2924 18008KT P6SM SCT060 SCT250
     FM290800 18008KT P6SM OVC015
     FM291000 16006KT P6SM OVC007
     FM291500 16018G27KT P6SM SCT040 SCT250=

USA.gov is the U.S. government's official web portal to all federal, state and local government web resources and services.